Haikou Meilan International Airport
ZJHK : now visible

Airfield :











YOU CAN JOIN US ON...

 
LOGIN :

Register | Disclaimer

   EN    FR    IT 

 









Legend :    VFR   Marginal VFR   IFR   Intensive IFR   Very Intensive IFR
Visi :
Ceiling :
>= 8 km
>= 3000ft
5 to 8 km
1000 to 3000 ft
1500m to 5 km
500 to 1000 ft
800 to 1500m
200 to 500 ft
< 800m
< 200 ft
Symbols :   Thunderstorms  Fog  Heavy snow  Heavy precipitations  Wind > 20 kt






- Airport Elevation : 75 ft
- IATA code : HAK


ZJHK - Haikou Meilan International

CURRENT METAR :
  • 120000Z 10003MPS 5000 -RA BR BKN007 OVC030 23/23 Q1014 BECMG AT0100 BKN010

EXPIRED METARs :
  • 112300Z 10005MPS 2500 -RA BR BKN007 OVC030 24/23 Q1013 BECMG AT2330 6000 BKN010
  • 112200Z 10005MPS 6000 -RA SCT020 BKN046 24/22 Q1012 NOSIG

TAF TAF ZJHK
Valid from the 12 at 00:00 until the 13 at 00:00 UTC


111905Z 1200/1224 10004MPS 9999 BKN030 TX29/1206Z TN23/1221Z



MET'MAP, your aeronautical weather chart ! - Copyright ORBIFLY December 2007 - Disclaimer

ORBIFLY MET'MAP TEAM :

Programming & Development : Alexandra Zaïnal
Concept & Development : Baudouin d'Aumeries
Co-Development & Prog : Marc-Olivier Méhu
Technical & hardware support : Manuel Goepfert

Contact : metmap@orbifly.com




SOURCES & CREDITS :

   NOAA       Earth
Advisory